sensor_id;sensor_type;location;lat;lon;timestamp;temperature;humidity
3727;DHT22;1879;45.876;12.300;2023-07-22T00:00:49;23.20;99.90
3727;DHT22;1879;45.876;12.300;2023-07-22T00:03:16;23.10;99.90
3727;DHT22;1879;45.876;12.300;2023-07-22T00:05:45;23.10;99.90
3727;DHT22;1879;45.876;12.300;2023-07-22T00:08:12;22.90;99.90
3727;DHT22;1879;45.876;12.300;2023-07-22T00:10:41;22.90;99.90
3727;DHT22;1879;45.876;12.300;2023-07-22T00:13:10;22.90;99.90
3727;DHT22;1879;45.876;12.300;2023-07-22T00:15:37;22.90;99.90
3727;DHT22;1879;45.876;12.300;2023-07-22T00:18:05;22.80;99.90
3727;DHT22;1879;45.876;12.300;2023-07-22T00:20:33;22.60;99.90
3727;DHT22;1879;45.876;12.300;2023-07-22T00:23:00;22.50;99.90
3727;DHT22;1879;45.876;12.300;2023-07-22T00:25:27;22.50;99.90
3727;DHT22;1879;45.876;12.300;2023-07-22T00:27:54;22.50;99.90
3727;DHT22;1879;45.876;12.300;2023-07-22T00:30:26;22.50;99.90
3727;DHT22;1879;45.876;12.300;2023-07-22T00:32:54;22.40;99.90
3727;DHT22;1879;45.876;12.300;2023-07-22T00:35:21;22.30;99.90
3727;DHT22;1879;45.876;12.300;2023-07-22T00:37:49;22.30;99.90
3727;DHT22;1879;45.876;12.300;2023-07-22T00:40:16;22.40;99.90
3727;DHT22;1879;45.876;12.300;2023-07-22T00:42:43;22.40;99.90
3727;DHT22;1879;45.876;12.300;2023-07-22T00:45:11;22.40;99.90
3727;DHT22;1879;45.876;12.300;2023-07-22T00:47:40;22.40;99.90
3727;DHT22;1879;45.876;12.300;2023-07-22T00:50:08;22.30;99.90
3727;DHT22;1879;45.876;12.300;2023-07-22T00:52:35;22.30;99.90
3727;DHT22;1879;45.876;12.300;2023-07-22T00:55:03;22.30;99.90
3727;DHT22;1879;45.876;12.300;2023-07-22T00:57:31;22.30;99.90
3727;DHT22;1879;45.876;12.300;2023-07-22T00:59:59;22.40;99.90
3727;DHT22;1879;45.876;12.300;2023-07-22T01:02:26;22.40;99.90
3727;DHT22;1879;45.876;12.300;2023-07-22T01:04:55;22.40;99.90
3727;DHT22;1879;45.876;12.300;2023-07-22T01:07:22;22.40;99.90
3727;DHT22;1879;45.876;12.300;2023-07-22T01:09:49;22.30;99.90
3727;DHT22;1879;45.876;12.300;2023-07-22T01:12:22;22.20;99.90
3727;DHT22;1879;45.876;12.300;2023-07-22T01:14:50;22.20;99.90
3727;DHT22;1879;45.876;12.300;2023-07-22T01:17:18;22.10;99.90
3727;DHT22;1879;45.876;12.300;2023-07-22T01:19:46;22.10;99.90
3727;DHT22;1879;45.876;12.300;2023-07-22T01:22:16;22.10;99.90
3727;DHT22;1879;45.876;12.300;2023-07-22T01:24:45;22.10;99.90
3727;DHT22;1879;45.876;12.300;2023-07-22T01:27:15;22.00;99.90
3727;DHT22;1879;45.876;12.300;2023-07-22T01:29:42;22.00;99.90
3727;DHT22;1879;45.876;12.300;2023-07-22T01:32:10;22.00;99.90
3727;DHT22;1879;45.876;12.300;2023-07-22T01:34:40;21.90;99.90
3727;DHT22;1879;45.876;12.300;2023-07-22T01:37:07;21.80;99.90
3727;DHT22;1879;45.876;12.300;2023-07-22T01:39:35;21.60;99.90
3727;DHT22;1879;45.876;12.300;2023-07-22T01:42:04;21.50;99.90
3727;DHT22;1879;45.876;12.300;2023-07-22T01:44:31;21.50;99.90
3727;DHT22;1879;45.876;12.300;2023-07-22T01:47:02;21.60;99.90
3727;DHT22;1879;45.876;12.300;2023-07-22T01:49:29;21.60;99.90
3727;DHT22;1879;45.876;12.300;2023-07-22T01:51:57;21.70;99.90
3727;DHT22;1879;45.876;12.300;2023-07-22T01:54:24;21.80;99.90
3727;DHT22;1879;45.876;12.300;2023-07-22T01:56:51;21.80;99.90
3727;DHT22;1879;45.876;12.300;2023-07-22T01:59:20;21.90;99.90
3727;DHT22;1879;45.876;12.300;2023-07-22T02:01:47;22.00;99.90
3727;DHT22;1879;45.876;12.300;2023-07-22T02:04:14;22.00;99.90
3727;DHT22;1879;45.876;12.300;2023-07-22T02:06:42;22.10;99.90
3727;DHT22;1879;45.876;12.300;2023-07-22T02:09:09;22.20;99.90
3727;DHT22;1879;45.876;12.300;2023-07-22T02:11:39;22.10;99.90
3727;DHT22;1879;45.876;12.300;2023-07-22T02:14:06;21.90;99.90
3727;DHT22;1879;45.876;12.300;2023-07-22T02:16:37;21.80;99.90
3727;DHT22;1879;45.876;12.300;2023-07-22T02:19:05;21.80;99.90
3727;DHT22;1879;45.876;12.300;2023-07-22T02:21:32;21.70;99.90
3727;DHT22;1879;45.876;12.300;2023-07-22T02:23:59;21.70;99.90
3727;DHT22;1879;45.876;12.300;2023-07-22T02:26:26;21.60;99.90
3727;DHT22;1879;45.876;12.300;2023-07-22T02:28:54;21.50;99.90
3727;DHT22;1879;45.876;12.300;2023-07-22T02:31:21;21.50;99.90
3727;DHT22;1879;45.876;12.300;2023-07-22T02:33:50;21.40;99.90
3727;DHT22;1879;45.876;12.300;2023-07-22T02:36:17;21.40;99.90
3727;DHT22;1879;45.876;12.300;2023-07-22T02:38:44;21.50;99.90
3727;DHT22;1879;45.876;12.300;2023-07-22T02:41:12;21.50;99.90
3727;DHT22;1879;45.876;12.300;2023-07-22T02:43:39;21.50;99.90
3727;DHT22;1879;45.876;12.300;2023-07-22T02:46:07;21.50;99.90
3727;DHT22;1879;45.876;12.300;2023-07-22T02:48:35;21.50;99.90
3727;DHT22;1879;45.876;12.300;2023-07-22T02:51:05;21.50;99.90
3727;DHT22;1879;45.876;12.300;2023-07-22T02:53:32;21.60;99.90
3727;DHT22;1879;45.876;12.300;2023-07-22T02:56:00;21.70;99.90
3727;DHT22;1879;45.876;12.300;2023-07-22T02:58:27;21.90;99.90
3727;DHT22;1879;45.876;12.300;2023-07-22T03:00:55;21.90;99.90
3727;DHT22;1879;45.876;12.300;2023-07-22T03:03:23;21.90;99.90
3727;DHT22;1879;45.876;12.300;2023-07-22T03:05:50;22.00;99.90
3727;DHT22;1879;45.876;12.300;2023-07-22T03:08:21;22.00;99.90
3727;DHT22;1879;45.876;12.300;2023-07-22T03:10:48;22.10;99.90
3727;DHT22;1879;45.876;12.300;2023-07-22T03:13:15;22.10;99.90
3727;DHT22;1879;45.876;12.300;2023-07-22T03:15:43;22.10;99.90
3727;DHT22;1879;45.876;12.300;2023-07-22T03:18:11;22.10;99.90
3727;DHT22;1879;45.876;12.300;2023-07-22T03:20:39;22.00;99.90
3727;DHT22;1879;45.876;12.300;2023-07-22T03:23:07;21.90;99.90
3727;DHT22;1879;45.876;12.300;2023-07-22T03:25:35;21.80;99.90
3727;DHT22;1879;45.876;12.300;2023-07-22T03:28:04;21.70;99.90
3727;DHT22;1879;45.876;12.300;2023-07-22T03:30:32;21.60;99.90
3727;DHT22;1879;45.876;12.300;2023-07-22T03:33:00;21.60;99.90
3727;DHT22;1879;45.876;12.300;2023-07-22T03:35:28;21.60;99.90
3727;DHT22;1879;45.876;12.300;2023-07-22T03:37:55;21.60;99.90
3727;DHT22;1879;45.876;12.300;2023-07-22T03:40:23;21.70;99.90
3727;DHT22;1879;45.876;12.300;2023-07-22T03:42:54;21.70;99.90
3727;DHT22;1879;45.876;12.300;2023-07-22T03:45:22;21.70;99.90
3727;DHT22;1879;45.876;12.300;2023-07-22T03:47:51;21.80;99.90
3727;DHT22;1879;45.876;12.300;2023-07-22T03:50:20;21.70;99.90
3727;DHT22;1879;45.876;12.300;2023-07-22T03:52:47;21.70;99.90
3727;DHT22;1879;45.876;12.300;2023-07-22T03:55:14;21.50;99.90
3727;DHT22;1879;45.876;12.300;2023-07-22T03:57:42;21.40;99.90
3727;DHT22;1879;45.876;12.300;2023-07-22T04:00:11;21.20;99.90
3727;DHT22;1879;45.876;12.300;2023-07-22T04:02:38;21.20;99.90
3727;DHT22;1879;45.876;12.300;2023-07-22T04:05:06;21.10;99.90
3727;DHT22;1879;45.876;12.300;2023-07-22T04:07:34;21.00;99.90
3727;DHT22;1879;45.876;12.300;2023-07-22T04:10:01;21.00;99.90
3727;DHT22;1879;45.876;12.300;2023-07-22T04:12:28;21.10;99.90
3727;DHT22;1879;45.876;12.300;2023-07-22T04:14:56;21.10;99.90
3727;DHT22;1879;45.876;12.300;2023-07-22T04:17:24;21.10;99.90
3727;DHT22;1879;45.876;12.300;2023-07-22T04:19:52;21.20;99.90
3727;DHT22;1879;45.876;12.300;2023-07-22T04:22:20;21.30;99.90
3727;DHT22;1879;45.876;12.300;2023-07-22T04:24:47;21.40;99.90
3727;DHT22;1879;45.876;12.300;2023-07-22T04:27:15;21.40;99.90
3727;DHT22;1879;45.876;12.300;2023-07-22T04:29:42;21.50;99.90
3727;DHT22;1879;45.876;12.300;2023-07-22T04:32:10;21.50;99.90
3727;DHT22;1879;45.876;12.300;2023-07-22T04:34:38;21.60;99.90
3727;DHT22;1879;45.876;12.300;2023-07-22T04:37:06;21.60;99.90
3727;DHT22;1879;45.876;12.300;2023-07-22T04:39:33;21.70;99.90
3727;DHT22;1879;45.876;12.300;2023-07-22T04:42:00;21.70;99.90
3727;DHT22;1879;45.876;12.300;2023-07-22T04:44:28;21.70;99.90
3727;DHT22;1879;45.876;12.300;2023-07-22T04:46:55;21.80;99.90
3727;DHT22;1879;45.876;12.300;2023-07-22T04:49:22;21.70;99.90
3727;DHT22;1879;45.876;12.300;2023-07-22T04:51:51;21.80;99.90
3727;DHT22;1879;45.876;12.300;2023-07-22T04:54:18;21.90;99.90
3727;DHT22;1879;45.876;12.300;2023-07-22T04:56:45;22.00;99.90
3727;DHT22;1879;45.876;12.300;2023-07-22T04:59:13;22.10;99.90
3727;DHT22;1879;45.876;12.300;2023-07-22T05:01:41;22.20;99.90
3727;DHT22;1879;45.876;12.300;2023-07-22T05:04:09;22.30;99.90
3727;DHT22;1879;45.876;12.300;2023-07-22T05:06:36;22.50;99.90
3727;DHT22;1879;45.876;12.300;2023-07-22T05:09:05;22.50;99.90
3727;DHT22;1879;45.876;12.300;2023-07-22T05:11:32;22.60;99.90
3727;DHT22;1879;45.876;12.300;2023-07-22T05:13:59;22.70;99.90
3727;DHT22;1879;45.876;12.300;2023-07-22T05:16:26;22.70;99.90
3727;DHT22;1879;45.876;12.300;2023-07-22T05:18:54;22.80;99.90
3727;DHT22;1879;45.876;12.300;2023-07-22T05:21:21;22.90;99.90
3727;DHT22;1879;45.876;12.300;2023-07-22T05:23:48;23.00;99.90
3727;DHT22;1879;45.876;12.300;2023-07-22T05:26:17;23.00;99.90
3727;DHT22;1879;45.876;12.300;2023-07-22T05:28:44;23.10;99.90
3727;DHT22;1879;45.876;12.300;2023-07-22T05:31:11;23.20;99.90
3727;DHT22;1879;45.876;12.300;2023-07-22T05:33:39;23.30;99.90
3727;DHT22;1879;45.876;12.300;2023-07-22T05:36:06;23.40;99.90
3727;DHT22;1879;45.876;12.300;2023-07-22T05:38:33;23.50;99.90
3727;DHT22;1879;45.876;12.300;2023-07-22T05:41:00;23.60;99.90
3727;DHT22;1879;45.876;12.300;2023-07-22T05:43:29;23.70;99.90
3727;DHT22;1879;45.876;12.300;2023-07-22T05:45:56;23.80;99.90
3727;DHT22;1879;45.876;12.300;2023-07-22T05:48:24;23.90;99.90
3727;DHT22;1879;45.876;12.300;2023-07-22T05:50:51;24.00;99.90
3727;DHT22;1879;45.876;12.300;2023-07-22T05:53:18;24.10;99.90
3727;DHT22;1879;45.876;12.300;2023-07-22T05:55:45;24.10;99.90
3727;DHT22;1879;45.876;12.300;2023-07-22T05:58:16;24.20;99.90
3727;DHT22;1879;45.876;12.300;2023-07-22T06:00:45;24.20;99.90
3727;DHT22;1879;45.876;12.300;2023-07-22T06:03:12;24.20;99.90
3727;DHT22;1879;45.876;12.300;2023-07-22T06:05:40;24.30;99.90
3727;DHT22;1879;45.876;12.300;2023-07-22T06:08:07;24.30;99.90
3727;DHT22;1879;45.876;12.300;2023-07-22T06:10:34;24.30;99.90
3727;DHT22;1879;45.876;12.300;2023-07-22T06:13:03;24.30;99.90
3727;DHT22;1879;45.876;12.300;2023-07-22T06:15:33;24.40;99.90
3727;DHT22;1879;45.876;12.300;2023-07-22T06:18:02;24.40;99.90
3727;DHT22;1879;45.876;12.300;2023-07-22T06:20:29;24.50;99.90
3727;DHT22;1879;45.876;12.300;2023-07-22T06:22:56;24.50;99.90
3727;DHT22;1879;45.876;12.300;2023-07-22T06:25:24;24.60;99.90
3727;DHT22;1879;45.876;12.300;2023-07-22T06:27:51;24.60;99.90
3727;DHT22;1879;45.876;12.300;2023-07-22T06:30:19;24.60;99.90
3727;DHT22;1879;45.876;12.300;2023-07-22T06:32:47;24.70;99.90
3727;DHT22;1879;45.876;12.300;2023-07-22T06:35:15;24.80;99.90
3727;DHT22;1879;45.876;12.300;2023-07-22T06:37:43;24.90;99.90
3727;DHT22;1879;45.876;12.300;2023-07-22T06:40:10;24.90;99.90
3727;DHT22;1879;45.876;12.300;2023-07-22T06:42:38;25.00;99.90
3727;DHT22;1879;45.876;12.300;2023-07-22T06:45:06;25.10;99.90
3727;DHT22;1879;45.876;12.300;2023-07-22T06:47:33;25.10;99.90
3727;DHT22;1879;45.876;12.300;2023-07-22T06:50:02;25.20;99.90
3727;DHT22;1879;45.876;12.300;2023-07-22T06:52:31;25.30;99.90
3727;DHT22;1879;45.876;12.300;2023-07-22T06:54:59;25.30;99.90
3727;DHT22;1879;45.876;12.300;2023-07-22T06:57:26;25.40;99.90
3727;DHT22;1879;45.876;12.300;2023-07-22T06:59:54;25.50;99.90
3727;DHT22;1879;45.876;12.300;2023-07-22T07:02:21;25.60;99.90
3727;DHT22;1879;45.876;12.300;2023-07-22T07:04:48;25.70;99.90
3727;DHT22;1879;45.876;12.300;2023-07-22T07:07:16;25.70;99.90
3727;DHT22;1879;45.876;12.300;2023-07-22T07:09:45;25.70;99.90
3727;DHT22;1879;45.876;12.300;2023-07-22T07:12:12;25.80;99.90
3727;DHT22;1879;45.876;12.300;2023-07-22T07:14:39;25.90;99.90
3727;DHT22;1879;45.876;12.300;2023-07-22T07:17:06;25.90;99.90
3727;DHT22;1879;45.876;12.300;2023-07-22T07:19:34;25.90;99.90
3727;DHT22;1879;45.876;12.300;2023-07-22T07:22:01;26.00;99.80
3727;DHT22;1879;45.876;12.300;2023-07-22T07:24:28;26.00;99.90
3727;DHT22;1879;45.876;12.300;2023-07-22T07:26:57;26.00;99.90
3727;DHT22;1879;45.876;12.300;2023-07-22T07:29:24;26.00;99.90
3727;DHT22;1879;45.876;12.300;2023-07-22T07:31:53;26.10;99.90
3727;DHT22;1879;45.876;12.300;2023-07-22T07:34:21;26.10;99.90
3727;DHT22;1879;45.876;12.300;2023-07-22T07:36:48;26.20;99.90
3727;DHT22;1879;45.876;12.300;2023-07-22T07:39:15;26.30;99.90
3727;DHT22;1879;45.876;12.300;2023-07-22T07:41:42;26.40;99.90
3727;DHT22;1879;45.876;12.300;2023-07-22T07:44:11;26.50;99.80
3727;DHT22;1879;45.876;12.300;2023-07-22T07:46:38;26.60;99.10
3727;DHT22;1879;45.876;12.300;2023-07-22T07:49:05;26.70;98.80
3727;DHT22;1879;45.876;12.300;2023-07-22T07:51:33;26.80;98.90
3727;DHT22;1879;45.876;12.300;2023-07-22T07:54:00;26.80;99.00
3727;DHT22;1879;45.876;12.300;2023-07-22T07:56:29;26.70;99.00
3727;DHT22;1879;45.876;12.300;2023-07-22T07:58:57;26.70;99.40
3727;DHT22;1879;45.876;12.300;2023-07-22T08:01:26;26.60;99.00
3727;DHT22;1879;45.876;12.300;2023-07-22T08:03:53;26.60;99.00
3727;DHT22;1879;45.876;12.300;2023-07-22T08:06:21;26.60;99.20
3727;DHT22;1879;45.876;12.300;2023-07-22T08:08:48;26.70;99.20
3727;DHT22;1879;45.876;12.300;2023-07-22T08:11:16;26.80;99.30
3727;DHT22;1879;45.876;12.300;2023-07-22T08:13:44;27.00;98.90
3727;DHT22;1879;45.876;12.300;2023-07-22T08:16:13;27.00;99.20
3727;DHT22;1879;45.876;12.300;2023-07-22T08:18:42;27.10;99.50
3727;DHT22;1879;45.876;12.300;2023-07-22T08:21:09;27.10;98.90
3727;DHT22;1879;45.876;12.300;2023-07-22T08:23:37;27.30;99.50
3727;DHT22;1879;45.876;12.300;2023-07-22T08:26:04;27.50;99.90
3727;DHT22;1879;45.876;12.300;2023-07-22T08:28:32;27.60;99.90
3727;DHT22;1879;45.876;12.300;2023-07-22T08:30:59;27.90;99.30
3727;DHT22;1879;45.876;12.300;2023-07-22T08:33:27;28.10;99.10
3727;DHT22;1879;45.876;12.300;2023-07-22T08:35:55;28.30;98.40
3727;DHT22;1879;45.876;12.300;2023-07-22T08:38:22;28.50;97.70
3727;DHT22;1879;45.876;12.300;2023-07-22T08:40:50;28.70;97.30
3727;DHT22;1879;45.876;12.300;2023-07-22T08:43:20;28.70;96.20
3727;DHT22;1879;45.876;12.300;2023-07-22T08:45:48;28.70;95.80
3727;DHT22;1879;45.876;12.300;2023-07-22T08:48:17;28.60;95.70
3727;DHT22;1879;45.876;12.300;2023-07-22T08:50:50;28.50;95.80
3727;DHT22;1879;45.876;12.300;2023-07-22T08:53:20;28.40;95.70
3727;DHT22;1879;45.876;12.300;2023-07-22T08:55:47;28.50;95.00
3727;DHT22;1879;45.876;12.300;2023-07-22T08:58:14;28.60;94.90
3727;DHT22;1879;45.876;12.300;2023-07-22T09:00:42;28.60;95.30
3727;DHT22;1879;45.876;12.300;2023-07-22T09:03:10;28.70;94.80
3727;DHT22;1879;45.876;12.300;2023-07-22T09:05:38;28.70;94.70
3727;DHT22;1879;45.876;12.300;2023-07-22T09:08:07;28.70;94.10
3727;DHT22;1879;45.876;12.300;2023-07-22T09:10:35;28.60;93.60
3727;DHT22;1879;45.876;12.300;2023-07-22T09:13:04;28.50;93.60
3727;DHT22;1879;45.876;12.300;2023-07-22T09:15:35;28.50;93.60
3727;DHT22;1879;45.876;12.300;2023-07-22T09:18:02;28.60;93.80
3727;DHT22;1879;45.876;12.300;2023-07-22T09:20:30;28.70;93.30
3727;DHT22;1879;45.876;12.300;2023-07-22T09:22:57;28.70;93.10
3727;DHT22;1879;45.876;12.300;2023-07-22T09:25:26;28.70;92.30
3727;DHT22;1879;45.876;12.300;2023-07-22T09:27:58;28.70;92.10
3727;DHT22;1879;45.876;12.300;2023-07-22T09:30:26;28.70;92.80
3727;DHT22;1879;45.876;12.300;2023-07-22T09:32:54;28.70;92.30
3727;DHT22;1879;45.876;12.300;2023-07-22T09:35:22;28.70;91.40
3727;DHT22;1879;45.876;12.300;2023-07-22T09:37:49;28.80;91.80
3727;DHT22;1879;45.876;12.300;2023-07-22T09:40:18;28.80;92.10
3727;DHT22;1879;45.876;12.300;2023-07-22T09:42:47;29.00;92.50
3727;DHT22;1879;45.876;12.300;2023-07-22T09:45:15;29.00;92.80
3727;DHT22;1879;45.876;12.300;2023-07-22T09:47:44;29.20;92.80
3727;DHT22;1879;45.876;12.300;2023-07-22T09:50:14;29.30;92.80
3727;DHT22;1879;45.876;12.300;2023-07-22T09:52:52;29.40;92.60
3727;DHT22;1879;45.876;12.300;2023-07-22T09:55:20;29.40;92.50
3727;DHT22;1879;45.876;12.300;2023-07-22T09:57:51;29.40;92.50
3727;DHT22;1879;45.876;12.300;2023-07-22T10:00:21;29.50;91.80
3727;DHT22;1879;45.876;12.300;2023-07-22T10:02:51;29.70;91.10
3727;DHT22;1879;45.876;12.300;2023-07-22T10:05:19;29.70;90.70
3727;DHT22;1879;45.876;12.300;2023-07-22T10:07:48;29.80;91.20
3727;DHT22;1879;45.876;12.300;2023-07-22T10:10:16;29.90;91.20
3727;DHT22;1879;45.876;12.300;2023-07-22T10:12:44;30.10;91.40
3727;DHT22;1879;45.876;12.300;2023-07-22T10:15:12;30.20;90.60
3727;DHT22;1879;45.876;12.300;2023-07-22T10:17:42;30.40;90.10
3727;DHT22;1879;45.876;12.300;2023-07-22T10:20:10;30.60;90.60
3727;DHT22;1879;45.876;12.300;2023-07-22T10:22:41;30.90;90.40
3727;DHT22;1879;45.876;12.300;2023-07-22T10:25:11;31.10;90.00
3727;DHT22;1879;45.876;12.300;2023-07-22T10:27:38;31.30;89.10
3727;DHT22;1879;45.876;12.300;2023-07-22T10:30:07;31.30;88.30
3727;DHT22;1879;45.876;12.300;2023-07-22T10:32:41;31.00;86.10
3727;DHT22;1879;45.876;12.300;2023-07-22T10:35:09;30.70;85.80
3727;DHT22;1879;45.876;12.300;2023-07-22T10:37:38;30.40;86.40
3727;DHT22;1879;45.876;12.300;2023-07-22T10:40:18;30.20;86.40
3727;DHT22;1879;45.876;12.300;2023-07-22T10:42:57;30.00;87.80
3727;DHT22;1879;45.876;12.300;2023-07-22T10:45:26;29.80;88.00
3727;DHT22;1879;45.876;12.300;2023-07-22T10:48:06;29.60;89.60
3727;DHT22;1879;45.876;12.300;2023-07-22T10:50:44;29.40;90.10
3727;DHT22;1879;45.876;12.300;2023-07-22T10:53:19;29.10;90.60
3727;DHT22;1879;45.876;12.300;2023-07-22T10:56:06;28.90;90.50
3727;DHT22;1879;45.876;12.300;2023-07-22T10:58:44;28.70;92.00
3727;DHT22;1879;45.876;12.300;2023-07-22T11:01:22;28.60;92.60
3727;DHT22;1879;45.876;12.300;2023-07-22T11:04:12;28.40;94.20
3727;DHT22;1879;45.876;12.300;2023-07-22T11:06:51;28.20;96.40
3727;DHT22;1879;45.876;12.300;2023-07-22T11:09:37;27.90;98.60
3727;DHT22;1879;45.876;12.300;2023-07-22T11:12:05;27.60;99.90
3727;DHT22;1879;45.876;12.300;2023-07-22T11:14:34;27.30;99.90
3727;DHT22;1879;45.876;12.300;2023-07-22T11:17:03;27.10;99.90
3727;DHT22;1879;45.876;12.300;2023-07-22T11:19:35;27.00;99.90
3727;DHT22;1879;45.876;12.300;2023-07-22T11:22:02;26.80;99.90
3727;DHT22;1879;45.876;12.300;2023-07-22T11:24:31;26.60;99.90
3727;DHT22;1879;45.876;12.300;2023-07-22T11:26:58;26.40;99.90
3727;DHT22;1879;45.876;12.300;2023-07-22T11:29:25;26.20;99.90
3727;DHT22;1879;45.876;12.300;2023-07-22T11:31:52;26.10;99.90
3727;DHT22;1879;45.876;12.300;2023-07-22T11:34:21;26.10;99.90
3727;DHT22;1879;45.876;12.300;2023-07-22T11:36:52;26.00;99.90
3727;DHT22;1879;45.876;12.300;2023-07-22T11:39:21;26.00;99.90
3727;DHT22;1879;45.876;12.300;2023-07-22T11:41:49;25.90;99.90
3727;DHT22;1879;45.876;12.300;2023-07-22T11:44:17;25.90;99.90
3727;DHT22;1879;45.876;12.300;2023-07-22T11:46:51;25.90;99.90
3727;DHT22;1879;45.876;12.300;2023-07-22T11:49:26;26.00;99.90
3727;DHT22;1879;45.876;12.300;2023-07-22T11:52:02;26.10;99.90
3727;DHT22;1879;45.876;12.300;2023-07-22T11:54:31;26.10;99.90
3727;DHT22;1879;45.876;12.300;2023-07-22T11:57:10;26.00;99.90
3727;DHT22;1879;45.876;12.300;2023-07-22T11:59:38;25.90;99.90
3727;DHT22;1879;45.876;12.300;2023-07-22T12:02:06;25.80;99.90
3727;DHT22;1879;45.876;12.300;2023-07-22T12:04:33;25.80;99.90
3727;DHT22;1879;45.876;12.300;2023-07-22T12:07:02;25.90;99.90
3727;DHT22;1879;45.876;12.300;2023-07-22T12:09:31;26.20;99.90
3727;DHT22;1879;45.876;12.300;2023-07-22T12:11:59;26.40;99.90
3727;DHT22;1879;45.876;12.300;2023-07-22T12:14:33;26.50;99.90
3727;DHT22;1879;45.876;12.300;2023-07-22T12:17:02;26.50;99.90
3727;DHT22;1879;45.876;12.300;2023-07-22T12:19:34;26.50;99.90
3727;DHT22;1879;45.876;12.300;2023-07-22T12:22:04;26.50;99.90
3727;DHT22;1879;45.876;12.300;2023-07-22T12:24:32;26.50;99.90
3727;DHT22;1879;45.876;12.300;2023-07-22T12:26:59;26.90;99.90
3727;DHT22;1879;45.876;12.300;2023-07-22T12:29:26;27.40;99.90
3727;DHT22;1879;45.876;12.300;2023-07-22T12:31:53;28.10;99.90
3727;DHT22;1879;45.876;12.300;2023-07-22T12:34:20;28.90;99.90
3727;DHT22;1879;45.876;12.300;2023-07-22T12:36:48;30.20;99.90
3727;DHT22;1879;45.876;12.300;2023-07-22T12:39:17;31.80;99.90
3727;DHT22;1879;45.876;12.300;2023-07-22T12:41:44;33.30;99.60
3727;DHT22;1879;45.876;12.300;2023-07-22T12:44:11;34.20;96.50
